Dallas, TX (75229)

11:51 AM CDT on September 01, 2015 (GMT -0500)
The Hockaday School | | Change Station
CLOSE
Current Station
Personal Weather Station
Location: Dallas, TX
Elevation: 620 ft
Nearby Weather Stations

Elev 620 ft 32.91 °N, 96.83 °W | Updated 19 seconds ago

Partly Cloudy
Partly Cloudy
85.7 °F
Feels Like 90 °F
N
6.0
Wind Variable Wind from South
Gusts 6.0 mph

Today
High -- | Low -- °F
--% Chance of Precip.
Yesterday
High -- | Low -- °F
Precip. -- in
7:01 AM 7:52 PM
Waning Gibbous, 88% visible
Pressure 30.03 in
Visibility 10.0 miles
Clouds Few 3800 ft
Few 30000 ft
Heat Index 90 °F
Dew Point 70 °F
Humidity 59%
Rainfall 0.00 in
Snow Depth Not available.
UV 6.5 out of 12
Pollen 9.10 out of 12
Air Quality Not available.
Flu Activity Not available.
METAR KDAL 011553Z 24006KT 10SM FEW038 FEW300 31/20 A3005 RMK AO2 SLP169 T03060200
Pressure 30.03 in
Visibility 10.0 miles
Clouds Few 3800 ft
Few 30000 ft
Heat Index 90 °F
Dew Point 70 °F
Humidity 59%
Rainfall 0.00 in
Snow Depth Not available.
UV 6.5 out of 12
Pollen 9.10 out of 12
Air Quality Not available.
Flu Activity Not available.
METAR KDAL 011553Z 24006KT 10SM FEW038 FEW300 31/20 A3005 RMK AO2 SLP169 T03060200
Nowcast | as of 11:00 am CDT on September 1, 2015

Isolated to scattered showers and thunderstorms that were south of an Austin to Caldwell line at 11 am will continue to move north at 15 to 20 mph. Brief heavy rain and cloud to ground lightning will accompany some of the storms. Otherwise...expect mostly sunny skies with temperatures warming into the low to mid 90s by 3 PM.

×

10-Day Weather Forecast

×

Almanac

Astronomy

Sep. 01, 2015 Rise Set
Actual Time
Civil Twilight
Nautical Twilight
Astronomical Twilight
Moon
Length of Visible Light
Length of Day
Tomorrow will be .
, % of the Moon is Illuminated

Today's Extremes

State Highs State Lows

Community

WunderPhotos

Upload Photos

1,851,555 photos uploaded!

WunderBlogs® & News

Nearby

Air Quality

  Air Quality AQ Index Pollutant
Not available.

Snow Depth

Station Depth Elevation

Earthquake Activity

City Distance Mag. Time & Date
Minimum magnitude displayed is 2.5.

Coastal Water Temperatures

Place Temperature

Stations

Nearby Weather Stations

Station Location Temp. Windchill Dew Point Humidity Wind Precip. Elev Updated Type